sensor_id;sensor_type;location;lat;lon;timestamp;temperature;humidity
37222;DHT22;23119;51.842;-2.230;2023-05-07T00:01:13;13.60;99.90
37222;DHT22;23119;51.842;-2.230;2023-05-07T00:03:38;13.60;99.90
37222;DHT22;23119;51.842;-2.230;2023-05-07T00:06:07;13.60;99.90
37222;DHT22;23119;51.842;-2.230;2023-05-07T00:08:32;13.50;99.90
37222;DHT22;23119;51.842;-2.230;2023-05-07T00:10:58;13.50;99.90
37222;DHT22;23119;51.842;-2.230;2023-05-07T00:13:26;13.50;99.90
37222;DHT22;23119;51.842;-2.230;2023-05-07T00:15:52;13.40;99.90
37222;DHT22;23119;51.842;-2.230;2023-05-07T00:18:20;13.40;99.90
37222;DHT22;23119;51.842;-2.230;2023-05-07T00:20:47;13.50;99.90
37222;DHT22;23119;51.842;-2.230;2023-05-07T00:23:13;13.40;99.90
37222;DHT22;23119;51.842;-2.230;2023-05-07T00:25:41;13.40;99.90
37222;DHT22;23119;51.842;-2.230;2023-05-07T00:28:07;13.40;99.90
37222;DHT22;23119;51.842;-2.230;2023-05-07T00:30:37;13.40;99.90
37222;DHT22;23119;51.842;-2.230;2023-05-07T00:33:05;13.40;99.90
37222;DHT22;23119;51.842;-2.230;2023-05-07T00:35:31;13.40;99.90
37222;DHT22;23119;51.842;-2.230;2023-05-07T00:37:57;13.40;99.90
37222;DHT22;23119;51.842;-2.230;2023-05-07T00:40:26;13.40;99.90
37222;DHT22;23119;51.842;-2.230;2023-05-07T00:42:52;13.40;99.90
37222;DHT22;23119;51.842;-2.230;2023-05-07T00:45:27;13.40;99.90
37222;DHT22;23119;51.842;-2.230;2023-05-07T00:47:58;13.40;99.90
37222;DHT22;23119;51.842;-2.230;2023-05-07T00:50:26;13.40;99.90
37222;DHT22;23119;51.842;-2.230;2023-05-07T00:52:53;13.40;99.90
37222;DHT22;23119;51.842;-2.230;2023-05-07T00:55:19;13.50;99.90
37222;DHT22;23119;51.842;-2.230;2023-05-07T00:57:48;13.40;99.90
37222;DHT22;23119;51.842;-2.230;2023-05-07T01:00:20;13.50;99.90
37222;DHT22;23119;51.842;-2.230;2023-05-07T01:02:50;13.50;99.90
37222;DHT22;23119;51.842;-2.230;2023-05-07T01:05:17;13.40;99.90
37222;DHT22;23119;51.842;-2.230;2023-05-07T01:07:43;13.50;99.90
37222;DHT22;23119;51.842;-2.230;2023-05-07T01:10:10;13.50;99.90
37222;DHT22;23119;51.842;-2.230;2023-05-07T01:12:37;13.50;99.90
37222;DHT22;23119;51.842;-2.230;2023-05-07T01:15:08;13.50;99.90
37222;DHT22;23119;51.842;-2.230;2023-05-07T01:17:36;13.50;99.90
37222;DHT22;23119;51.842;-2.230;2023-05-07T01:20:05;13.50;99.90
37222;DHT22;23119;51.842;-2.230;2023-05-07T01:22:35;13.50;99.90
37222;DHT22;23119;51.842;-2.230;2023-05-07T01:25:05;13.50;99.90
37222;DHT22;23119;51.842;-2.230;2023-05-07T01:27:35;13.50;99.90
37222;DHT22;23119;51.842;-2.230;2023-05-07T01:30:05;13.50;99.90
37222;DHT22;23119;51.842;-2.230;2023-05-07T01:35:05;13.50;99.90
37222;DHT22;23119;51.842;-2.230;2023-05-07T01:37:35;13.50;99.90
37222;DHT22;23119;51.842;-2.230;2023-05-07T01:40:02;13.50;99.90
37222;DHT22;23119;51.842;-2.230;2023-05-07T01:42:29;13.40;99.90
37222;DHT22;23119;51.842;-2.230;2023-05-07T01:44:55;13.40;99.90
37222;DHT22;23119;51.842;-2.230;2023-05-07T01:47:21;13.50;99.90
37222;DHT22;23119;51.842;-2.230;2023-05-07T01:49:47;13.40;99.90
37222;DHT22;23119;51.842;-2.230;2023-05-07T01:52:14;13.40;99.90
37222;DHT22;23119;51.842;-2.230;2023-05-07T01:54:39;13.40;99.90
37222;DHT22;23119;51.842;-2.230;2023-05-07T01:57:05;13.40;99.90
37222;DHT22;23119;51.842;-2.230;2023-05-07T01:59:33;13.40;99.90
37222;DHT22;23119;51.842;-2.230;2023-05-07T02:01:59;13.40;99.90
37222;DHT22;23119;51.842;-2.230;2023-05-07T02:04:26;13.40;99.90
37222;DHT22;23119;51.842;-2.230;2023-05-07T02:06:51;13.40;99.90
37222;DHT22;23119;51.842;-2.230;2023-05-07T02:09:18;13.40;99.90
37222;DHT22;23119;51.842;-2.230;2023-05-07T02:11:44;13.40;99.90
37222;DHT22;23119;51.842;-2.230;2023-05-07T02:14:10;13.40;99.90
37222;DHT22;23119;51.842;-2.230;2023-05-07T02:16:36;13.30;99.90
37222;DHT22;23119;51.842;-2.230;2023-05-07T02:19:04;13.30;99.90
37222;DHT22;23119;51.842;-2.230;2023-05-07T02:21:33;13.30;99.90
37222;DHT22;23119;51.842;-2.230;2023-05-07T02:23:59;13.20;99.90
37222;DHT22;23119;51.842;-2.230;2023-05-07T02:26:24;13.20;99.90
37222;DHT22;23119;51.842;-2.230;2023-05-07T02:28:51;13.10;99.90
37222;DHT22;23119;51.842;-2.230;2023-05-07T02:31:19;13.10;99.90
37222;DHT22;23119;51.842;-2.230;2023-05-07T02:33:45;13.10;99.90
37222;DHT22;23119;51.842;-2.230;2023-05-07T02:36:12;13.10;99.90
37222;DHT22;23119;51.842;-2.230;2023-05-07T02:38:38;13.10;99.90
37222;DHT22;23119;51.842;-2.230;2023-05-07T02:41:04;13.10;99.90
37222;DHT22;23119;51.842;-2.230;2023-05-07T02:43:29;13.10;99.90
37222;DHT22;23119;51.842;-2.230;2023-05-07T02:46:08;13.10;99.90
37222;DHT22;23119;51.842;-2.230;2023-05-07T02:48:34;13.00;99.90
37222;DHT22;23119;51.842;-2.230;2023-05-07T02:51:03;13.00;99.90
37222;DHT22;23119;51.842;-2.230;2023-05-07T02:53:30;12.90;99.90
37222;DHT22;23119;51.842;-2.230;2023-05-07T02:55:57;13.00;99.90
37222;DHT22;23119;51.842;-2.230;2023-05-07T02:58:23;12.90;99.90
37222;DHT22;23119;51.842;-2.230;2023-05-07T03:00:49;12.90;99.90
37222;DHT22;23119;51.842;-2.230;2023-05-07T03:03:15;12.80;99.90
37222;DHT22;23119;51.842;-2.230;2023-05-07T03:08:08;11.90;99.90
37222;DHT22;23119;51.842;-2.230;2023-05-07T03:10:33;12.70;99.90
37222;DHT22;23119;51.842;-2.230;2023-05-07T03:13:00;12.70;99.90
37222;DHT22;23119;51.842;-2.230;2023-05-07T03:15:26;12.70;99.90
37222;DHT22;23119;51.842;-2.230;2023-05-07T03:17:51;12.60;99.90
37222;DHT22;23119;51.842;-2.230;2023-05-07T03:20:17;12.60;99.90
37222;DHT22;23119;51.842;-2.230;2023-05-07T03:22:43;12.50;99.90
37222;DHT22;23119;51.842;-2.230;2023-05-07T03:25:09;12.50;99.90
37222;DHT22;23119;51.842;-2.230;2023-05-07T03:27:34;12.50;99.90
37222;DHT22;23119;51.842;-2.230;2023-05-07T03:30:00;12.50;99.90
37222;DHT22;23119;51.842;-2.230;2023-05-07T03:32:28;12.40;99.90
37222;DHT22;23119;51.842;-2.230;2023-05-07T03:34:54;12.40;99.90
37222;DHT22;23119;51.842;-2.230;2023-05-07T03:37:21;12.40;99.90
37222;DHT22;23119;51.842;-2.230;2023-05-07T03:39:47;12.40;99.90
37222;DHT22;23119;51.842;-2.230;2023-05-07T03:42:14;12.30;99.90
37222;DHT22;23119;51.842;-2.230;2023-05-07T03:44:40;12.30;99.90
37222;DHT22;23119;51.842;-2.230;2023-05-07T03:47:05;12.30;99.90
37222;DHT22;23119;51.842;-2.230;2023-05-07T03:49:31;12.30;99.90
37222;DHT22;23119;51.842;-2.230;2023-05-07T03:51:59;12.30;99.90
37222;DHT22;23119;51.842;-2.230;2023-05-07T03:54:28;12.30;99.90
37222;DHT22;23119;51.842;-2.230;2023-05-07T03:56:53;12.30;99.90
37222;DHT22;23119;51.842;-2.230;2023-05-07T03:59:19;12.30;99.90
37222;DHT22;23119;51.842;-2.230;2023-05-07T04:01:45;12.30;99.90
37222;DHT22;23119;51.842;-2.230;2023-05-07T04:04:11;12.30;99.90
37222;DHT22;23119;51.842;-2.230;2023-05-07T04:06:37;12.40;99.90
37222;DHT22;23119;51.842;-2.230;2023-05-07T04:09:03;12.30;99.90
37222;DHT22;23119;51.842;-2.230;2023-05-07T04:11:29;12.30;99.90
37222;DHT22;23119;51.842;-2.230;2023-05-07T04:13:54;12.30;99.90
37222;DHT22;23119;51.842;-2.230;2023-05-07T04:16:22;12.30;99.90
37222;DHT22;23119;51.842;-2.230;2023-05-07T04:18:48;12.40;99.90
37222;DHT22;23119;51.842;-2.230;2023-05-07T04:21:15;12.40;99.90
37222;DHT22;23119;51.842;-2.230;2023-05-07T04:23:41;12.40;99.90
37222;DHT22;23119;51.842;-2.230;2023-05-07T04:26:07;12.40;99.90
37222;DHT22;23119;51.842;-2.230;2023-05-07T04:28:33;12.40;99.90
37222;DHT22;23119;51.842;-2.230;2023-05-07T04:30:59;12.40;99.90
37222;DHT22;23119;51.842;-2.230;2023-05-07T04:33:25;12.50;99.90
37222;DHT22;23119;51.842;-2.230;2023-05-07T04:35:51;12.50;99.90
37222;DHT22;23119;51.842;-2.230;2023-05-07T04:38:17;12.40;99.90
37222;DHT22;23119;51.842;-2.230;2023-05-07T04:40:44;12.50;99.90
37222;DHT22;23119;51.842;-2.230;2023-05-07T04:43:10;12.50;99.90
37222;DHT22;23119;51.842;-2.230;2023-05-07T04:45:36;12.50;99.90
37222;DHT22;23119;51.842;-2.230;2023-05-07T04:48:02;12.50;99.90
37222;DHT22;23119;51.842;-2.230;2023-05-07T04:50:28;12.50;99.90
37222;DHT22;23119;51.842;-2.230;2023-05-07T04:52:53;12.60;99.90
37222;DHT22;23119;51.842;-2.230;2023-05-07T04:55:22;12.60;99.90
37222;DHT22;23119;51.842;-2.230;2023-05-07T04:57:48;12.70;99.90
37222;DHT22;23119;51.842;-2.230;2023-05-07T05:00:16;12.70;99.90
37222;DHT22;23119;51.842;-2.230;2023-05-07T05:02:47;12.80;99.90
37222;DHT22;23119;51.842;-2.230;2023-05-07T05:05:15;12.80;99.90
37222;DHT22;23119;51.842;-2.230;2023-05-07T05:07:43;12.80;99.90
37222;DHT22;23119;51.842;-2.230;2023-05-07T05:10:09;12.80;99.90
37222;DHT22;23119;51.842;-2.230;2023-05-07T05:12:37;12.90;99.90
37222;DHT22;23119;51.842;-2.230;2023-05-07T05:15:04;13.00;99.90
37222;DHT22;23119;51.842;-2.230;2023-05-07T05:17:32;13.00;99.90
37222;DHT22;23119;51.842;-2.230;2023-05-07T05:20:00;13.10;99.90
37222;DHT22;23119;51.842;-2.230;2023-05-07T05:22:25;13.20;99.90
37222;DHT22;23119;51.842;-2.230;2023-05-07T05:24:52;13.20;99.90
37222;DHT22;23119;51.842;-2.230;2023-05-07T05:27:17;13.20;99.90
37222;DHT22;23119;51.842;-2.230;2023-05-07T05:29:43;13.30;99.90
37222;DHT22;23119;51.842;-2.230;2023-05-07T05:32:09;13.30;99.90
37222;DHT22;23119;51.842;-2.230;2023-05-07T05:34:35;13.30;99.90
37222;DHT22;23119;51.842;-2.230;2023-05-07T05:37:01;13.30;99.90
37222;DHT22;23119;51.842;-2.230;2023-05-07T05:39:29;13.30;99.90
37222;DHT22;23119;51.842;-2.230;2023-05-07T05:41:56;13.40;99.90
37222;DHT22;23119;51.842;-2.230;2023-05-07T05:44:21;13.50;99.90
37222;DHT22;23119;51.842;-2.230;2023-05-07T05:46:47;13.60;99.90
37222;DHT22;23119;51.842;-2.230;2023-05-07T05:49:15;13.80;99.90
37222;DHT22;23119;51.842;-2.230;2023-05-07T05:51:41;14.00;99.90
37222;DHT22;23119;51.842;-2.230;2023-05-07T05:54:06;14.30;99.90
37222;DHT22;23119;51.842;-2.230;2023-05-07T05:56:32;14.60;99.90
37222;DHT22;23119;51.842;-2.230;2023-05-07T05:58:58;14.90;99.90
37222;DHT22;23119;51.842;-2.230;2023-05-07T06:01:24;15.00;99.90
37222;DHT22;23119;51.842;-2.230;2023-05-07T06:03:49;15.20;99.90
37222;DHT22;23119;51.842;-2.230;2023-05-07T06:06:16;15.10;99.90
37222;DHT22;23119;51.842;-2.230;2023-05-07T06:08:42;15.20;99.90
37222;DHT22;23119;51.842;-2.230;2023-05-07T06:11:08;15.10;99.90
37222;DHT22;23119;51.842;-2.230;2023-05-07T06:13:33;15.20;99.90
37222;DHT22;23119;51.842;-2.230;2023-05-07T06:16:04;15.30;99.90
37222;DHT22;23119;51.842;-2.230;2023-05-07T06:18:33;15.60;99.90
37222;DHT22;23119;51.842;-2.230;2023-05-07T06:21:01;15.80;99.90
37222;DHT22;23119;51.842;-2.230;2023-05-07T06:23:27;16.20;99.90
37222;DHT22;23119;51.842;-2.230;2023-05-07T06:25:55;16.60;99.90
37222;DHT22;23119;51.842;-2.230;2023-05-07T06:28:20;17.70;99.90
37222;DHT22;23119;51.842;-2.230;2023-05-07T06:30:48;18.40;99.90
37222;DHT22;23119;51.842;-2.230;2023-05-07T06:33:15;18.70;99.90
37222;DHT22;23119;51.842;-2.230;2023-05-07T06:35:43;18.70;99.90
37222;DHT22;23119;51.842;-2.230;2023-05-07T06:38:09;18.70;99.90
37222;DHT22;23119;51.842;-2.230;2023-05-07T06:40:35;18.60;99.90
37222;DHT22;23119;51.842;-2.230;2023-05-07T06:43:01;18.70;99.90
37222;DHT22;23119;51.842;-2.230;2023-05-07T06:45:27;18.80;99.90
37222;DHT22;23119;51.842;-2.230;2023-05-07T06:47:53;18.70;99.90
37222;DHT22;23119;51.842;-2.230;2023-05-07T06:50:19;18.50;99.90
37222;DHT22;23119;51.842;-2.230;2023-05-07T06:52:47;18.40;99.90
37222;DHT22;23119;51.842;-2.230;2023-05-07T06:55:13;18.30;99.90
37222;DHT22;23119;51.842;-2.230;2023-05-07T06:57:39;18.20;99.90
37222;DHT22;23119;51.842;-2.230;2023-05-07T07:00:05;18.00;99.90
37222;DHT22;23119;51.842;-2.230;2023-05-07T07:02:34;17.90;99.90
37222;DHT22;23119;51.842;-2.230;2023-05-07T07:05:00;17.80;99.90
37222;DHT22;23119;51.842;-2.230;2023-05-07T07:07:25;17.60;99.90
37222;DHT22;23119;51.842;-2.230;2023-05-07T07:09:51;17.40;99.90
37222;DHT22;23119;51.842;-2.230;2023-05-07T07:12:17;17.20;99.90
37222;DHT22;23119;51.842;-2.230;2023-05-07T07:14:45;17.20;99.90
37222;DHT22;23119;51.842;-2.230;2023-05-07T07:17:13;17.30;99.90
37222;DHT22;23119;51.842;-2.230;2023-05-07T07:19:39;18.30;99.90
37222;DHT22;23119;51.842;-2.230;2023-05-07T07:22:05;19.70;99.90
37222;DHT22;23119;51.842;-2.230;2023-05-07T07:24:30;20.80;99.90
37222;DHT22;23119;51.842;-2.230;2023-05-07T07:26:56;21.50;99.90
37222;DHT22;23119;51.842;-2.230;2023-05-07T07:29:22;21.90;99.90
37222;DHT22;23119;51.842;-2.230;2023-05-07T07:31:50;22.20;99.90
37222;DHT22;23119;51.842;-2.230;2023-05-07T07:34:18;22.40;99.90
37222;DHT22;23119;51.842;-2.230;2023-05-07T07:36:44;22.60;99.90
37222;DHT22;23119;51.842;-2.230;2023-05-07T07:39:09;22.80;99.90
37222;DHT22;23119;51.842;-2.230;2023-05-07T07:41:35;22.90;99.90
37222;DHT22;23119;51.842;-2.230;2023-05-07T07:44:05;23.00;99.90
37222;DHT22;23119;51.842;-2.230;2023-05-07T07:46:35;23.20;99.90
37222;DHT22;23119;51.842;-2.230;2023-05-07T07:49:00;23.40;99.90
37222;DHT22;23119;51.842;-2.230;2023-05-07T07:51:26;23.40;99.90
37222;DHT22;23119;51.842;-2.230;2023-05-07T07:53:52;23.30;99.90
37222;DHT22;23119;51.842;-2.230;2023-05-07T07:56:20;23.30;99.90
37222;DHT22;23119;51.842;-2.230;2023-05-07T07:58:46;23.30;99.90
37222;DHT22;23119;51.842;-2.230;2023-05-07T08:01:19;23.50;99.70
37222;DHT22;23119;51.842;-2.230;2023-05-07T08:03:45;23.60;99.30
37222;DHT22;23119;51.842;-2.230;2023-05-07T08:06:11;23.80;99.10
37222;DHT22;23119;51.842;-2.230;2023-05-07T08:08:39;23.90;98.70
37222;DHT22;23119;51.842;-2.230;2023-05-07T08:13:31;24.30;98.10
37222;DHT22;23119;51.842;-2.230;2023-05-07T08:15:57;24.70;97.90
37222;DHT22;23119;51.842;-2.230;2023-05-07T08:18:23;25.30;97.20
37222;DHT22;23119;51.842;-2.230;2023-05-07T08:20:50;25.70;96.50
37222;DHT22;23119;51.842;-2.230;2023-05-07T08:23:16;25.80;96.30
37222;DHT22;23119;51.842;-2.230;2023-05-07T08:25:41;25.80;96.30
37222;DHT22;23119;51.842;-2.230;2023-05-07T08:28:09;25.80;96.10
37222;DHT22;23119;51.842;-2.230;2023-05-07T08:30:35;25.80;95.90
37222;DHT22;23119;51.842;-2.230;2023-05-07T08:33:01;26.00;95.70
37222;DHT22;23119;51.842;-2.230;2023-05-07T08:35:27;26.60;95.30
37222;DHT22;23119;51.842;-2.230;2023-05-07T08:37:55;27.20;95.00
37222;DHT22;23119;51.842;-2.230;2023-05-07T08:40:25;27.30;94.50
37222;DHT22;23119;51.842;-2.230;2023-05-07T08:42:53;27.00;94.70
37222;DHT22;23119;51.842;-2.230;2023-05-07T08:45:19;26.50;94.80
37222;DHT22;23119;51.842;-2.230;2023-05-07T08:47:48;26.00;95.10
37222;DHT22;23119;51.842;-2.230;2023-05-07T08:50:16;25.60;95.40
37222;DHT22;23119;51.842;-2.230;2023-05-07T08:52:43;25.30;95.70
37222;DHT22;23119;51.842;-2.230;2023-05-07T08:55:09;25.00;95.90
37222;DHT22;23119;51.842;-2.230;2023-05-07T08:57:38;24.50;96.30
37222;DHT22;23119;51.842;-2.230;2023-05-07T09:00:05;24.20;96.60
37222;DHT22;23119;51.842;-2.230;2023-05-07T09:02:33;23.90;97.00
37222;DHT22;23119;51.842;-2.230;2023-05-07T09:05:02;23.70;97.20
37222;DHT22;23119;51.842;-2.230;2023-05-07T09:07:31;23.60;97.50
37222;DHT22;23119;51.842;-2.230;2023-05-07T09:09:57;23.40;97.70
37222;DHT22;23119;51.842;-2.230;2023-05-07T09:12:23;23.20;98.10
37222;DHT22;23119;51.842;-2.230;2023-05-07T09:14:49;23.00;98.30
37222;DHT22;23119;51.842;-2.230;2023-05-07T09:17:18;23.00;98.40
37222;DHT22;23119;51.842;-2.230;2023-05-07T09:19:44;22.90;98.50
37222;DHT22;23119;51.842;-2.230;2023-05-07T09:22:13;22.80;98.60
37222;DHT22;23119;51.842;-2.230;2023-05-07T09:24:39;22.70;98.70
37222;DHT22;23119;51.842;-2.230;2023-05-07T09:27:06;22.60;98.90
37222;DHT22;23119;51.842;-2.230;2023-05-07T09:29:32;22.40;99.00
37222;DHT22;23119;51.842;-2.230;2023-05-07T09:32:07;22.30;99.20
37222;DHT22;23119;51.842;-2.230;2023-05-07T09:34:34;22.20;99.60
37222;DHT22;23119;51.842;-2.230;2023-05-07T09:37:01;22.20;99.60
37222;DHT22;23119;51.842;-2.230;2023-05-07T09:39:42;22.10;99.60
37222;DHT22;23119;51.842;-2.230;2023-05-07T09:42:08;22.10;99.10
37222;DHT22;23119;51.842;-2.230;2023-05-07T09:44:34;22.00;99.70
37222;DHT22;23119;51.842;-2.230;2023-05-07T09:47:02;22.00;99.90
37222;DHT22;23119;51.842;-2.230;2023-05-07T09:49:30;22.20;99.90
37222;DHT22;23119;51.842;-2.230;2023-05-07T09:51:56;22.10;99.80
37222;DHT22;23119;51.842;-2.230;2023-05-07T09:54:26;22.10;99.80
37222;DHT22;23119;51.842;-2.230;2023-05-07T09:56:55;22.10;99.90
37222;DHT22;23119;51.842;-2.230;2023-05-07T09:59:21;22.30;99.90
37222;DHT22;23119;51.842;-2.230;2023-05-07T10:01:49;22.30;99.80
37222;DHT22;23119;51.842;-2.230;2023-05-07T10:04:15;22.10;99.80
37222;DHT22;23119;51.842;-2.230;2023-05-07T10:06:43;22.00;99.90
37222;DHT22;23119;51.842;-2.230;2023-05-07T10:09:12;22.00;99.90
37222;DHT22;23119;51.842;-2.230;2023-05-07T10:11:39;22.10;99.90
37222;DHT22;23119;51.842;-2.230;2023-05-07T10:14:08;22.30;99.90
37222;DHT22;23119;51.842;-2.230;2023-05-07T10:16:35;22.40;99.40
37222;DHT22;23119;51.842;-2.230;2023-05-07T10:19:06;22.40;99.30
37222;DHT22;23119;51.842;-2.230;2023-05-07T10:21:48;22.50;99.20
37222;DHT22;23119;51.842;-2.230;2023-05-07T10:24:29;22.60;99.00
37222;DHT22;23119;51.842;-2.230;2023-05-07T10:27:01;22.70;99.20
37222;DHT22;23119;51.842;-2.230;2023-05-07T10:34:53;23.10;99.10
37222;DHT22;23119;51.842;-2.230;2023-05-07T10:37:20;23.20;99.10
37222;DHT22;23119;51.842;-2.230;2023-05-07T10:39:48;23.30;99.00
37222;DHT22;23119;51.842;-2.230;2023-05-07T10:42:17;23.50;99.10
37222;DHT22;23119;51.842;-2.230;2023-05-07T10:44:46;23.60;98.80
37222;DHT22;23119;51.842;-2.230;2023-05-07T10:47:13;23.90;98.80
37222;DHT22;23119;51.842;-2.230;2023-05-07T10:52:21;24.20;98.30
37222;DHT22;23119;51.842;-2.230;2023-05-07T10:55:26;24.10;97.70
37222;DHT22;23119;51.842;-2.230;2023-05-07T10:57:54;24.10;97.70
37222;DHT22;23119;51.842;-2.230;2023-05-07T11:03:07;23.70;98.20
37222;DHT22;23119;51.842;-2.230;2023-05-07T11:05:34;23.70;97.80
37222;DHT22;23119;51.842;-2.230;2023-05-07T11:08:01;23.80;98.40
37222;DHT22;23119;51.842;-2.230;2023-05-07T11:10:52;23.90;98.30
37222;DHT22;23119;51.842;-2.230;2023-05-07T11:13:44;24.10;98.20
37222;DHT22;23119;51.842;-2.230;2023-05-07T11:16:28;24.20;98.20
37222;DHT22;23119;51.842;-2.230;2023-05-07T11:18:58;24.30;98.40
37222;DHT22;23119;51.842;-2.230;2023-05-07T11:24:08;24.30;97.80
37222;DHT22;23119;51.842;-2.230;2023-05-07T11:26:53;24.20;97.80
37222;DHT22;23119;51.842;-2.230;2023-05-07T11:29:22;24.20;97.80
37222;DHT22;23119;51.842;-2.230;2023-05-07T11:31:53;24.20;97.90
37222;DHT22;23119;51.842;-2.230;2023-05-07T11:34:26;24.20;97.90
37222;DHT22;23119;51.842;-2.230;2023-05-07T11:37:00;24.00;98.10
37222;DHT22;23119;51.842;-2.230;2023-05-07T11:39:31;24.30;98.20
37222;DHT22;23119;51.842;-2.230;2023-05-07T11:42:00;24.40;97.20
37222;DHT22;23119;51.842;-2.230;2023-05-07T11:44:46;24.40;97.10
37222;DHT22;23119;51.842;-2.230;2023-05-07T11:47:20;24.50;97.20
37222;DHT22;23119;51.842;-2.230;2023-05-07T11:49:52;24.60;97.30
37222;DHT22;23119;51.842;-2.230;2023-05-07T11:52:23;24.80;96.90
37222;DHT22;23119;51.842;-2.230;2023-05-07T11:54:55;24.80;96.90
37222;DHT22;23119;51.842;-2.230;2023-05-07T11:57:22;25.00;96.80
37222;DHT22;23119;51.842;-2.230;2023-05-07T11:59:53;25.20;96.60
37222;DHT22;23119;51.842;-2.230;2023-05-07T12:02:22;25.20;96.20
37222;DHT22;23119;51.842;-2.230;2023-05-07T12:04:53;25.30;96.30
37222;DHT22;23119;51.842;-2.230;2023-05-07T12:07:21;25.20;96.00
37222;DHT22;23119;51.842;-2.230;2023-05-07T12:09:47;25.30;95.80
37222;DHT22;23119;51.842;-2.230;2023-05-07T12:12:13;25.30;95.70
37222;DHT22;23119;51.842;-2.230;2023-05-07T12:14:44;25.30;95.70
37222;DHT22;23119;51.842;-2.230;2023-05-07T12:17:14;25.10;95.60
37222;DHT22;23119;51.842;-2.230;2023-05-07T12:19:41;24.70;95.40
37222;DHT22;23119;51.842;-2.230;2023-05-07T12:22:08;24.40;95.50
37222;DHT22;23119;51.842;-2.230;2023-05-07T12:24:47;24.10;96.10
37222;DHT22;23119;51.842;-2.230;2023-05-07T12:27:14;24.00;96.40
37222;DHT22;23119;51.842;-2.230;2023-05-07T12:29:43;24.00;96.80
37222;DHT22;23119;51.842;-2.230;2023-05-07T12:32:19;24.10;96.80
37222;DHT22;23119;51.842;-2.230;2023-05-07T12:34:46;24.10;96.90
37222;DHT22;23119;51.842;-2.230;2023-05-07T12:37:12;24.10;97.30
37222;DHT22;23119;51.842;-2.230;2023-05-07T12:39:44;24.20;97.00
37222;DHT22;23119;51.842;-2.230;2023-05-07T12:42:15;24.30;97.00
37222;DHT22;23119;51.842;-2.230;2023-05-07T12:44:43;24.30;97.10
37222;DHT22;23119;51.842;-2.230;2023-05-07T12:47:15;24.30;96.90
37222;DHT22;23119;51.842;-2.230;2023-05-07T12:49:44;24.40;97.10
37222;DHT22;23119;51.842;-2.230;2023-05-07T12:52:11;24.50;97.00
37222;DHT22;23119;51.842;-2.230;2023-05-07T12:54:40;24.50;96.80
37222;DHT22;23119;51.842;-2.230;2023-05-07T12:57:09;24.50;96.70
37222;DHT22;23119;51.842;-2.230;2023-05-07T12:59:39;24.60;96.70
37222;DHT22;23119;51.842;-2.230;2023-05-07T13:02:11;24.60;96.80
37222;DHT22;23119;51.842;-2.230;2023-05-07T13:04:37;24.50;96.60
37222;DHT22;23119;51.842;-2.230;2023-05-07T13:07:05;24.50;96.80
37222;DHT22;23119;51.842;-2.230;2023-05-07T13:09:31;24.40;96.70
37222;DHT22;23119;51.842;-2.230;2023-05-07T13:11:57;24.40;96.90
37222;DHT22;23119;51.842;-2.230;2023-05-07T13:14:30;24.50;97.10
37222;DHT22;23119;51.842;-2.230;2023-05-07T13:16:56;24.60;97.20
37222;DHT22;23119;51.842;-2.230;2023-05-07T13:19:22;24.60;97.20
37222;DHT22;23119;51.842;-2.230;2023-05-07T13:21:48;24.60;97.10
37222;DHT22;23119;51.842;-2.230;2023-05-07T13:24:15;24.50;96.90
37222;DHT22;23119;51.842;-2.230;2023-05-07T13:26:40;24.50;96.80
37222;DHT22;23119;51.842;-2.230;2023-05-07T13:29:06;24.40;96.90
37222;DHT22;23119;51.842;-2.230;2023-05-07T13:31:35;24.30;97.10
37222;DHT22;23119;51.842;-2.230;2023-05-07T13:34:01;24.30;97.20
37222;DHT22;23119;51.842;-2.230;2023-05-07T13:36:27;24.40;97.30
37222;DHT22;23119;51.842;-2.230;2023-05-07T13:38:53;24.50;96.70
37222;DHT22;23119;51.842;-2.230;2023-05-07T13:41:19;24.50;96.60
37222;DHT22;23119;51.842;-2.230;2023-05-07T13:43:53;24.40;96.70
37222;DHT22;23119;51.842;-2.230;2023-05-07T13:46:21;24.40;97.10
37222;DHT22;23119;51.842;-2.230;2023-05-07T13:48:50;24.50;97.00
37222;DHT22;23119;51.842;-2.230;2023-05-07T13:51:16;24.60;97.10
37222;DHT22;23119;51.842;-2.230;2023-05-07T13:53:42;24.80;97.10
37222;DHT22;23119;51.842;-2.230;2023-05-07T13:56:08;24.90;96.90
37222;DHT22;23119;51.842;-2.230;2023-05-07T13:58:33;25.00;96.80
37222;DHT22;23119;51.842;-2.230;2023-05-07T14:00:59;25.00;96.60
37222;DHT22;23119;51.842;-2.230;2023-05-07T14:03:27;25.00;96.60
37222;DHT22;23119;51.842;-2.230;2023-05-07T14:05:53;24.80;96.60
37222;DHT22;23119;51.842;-2.230;2023-05-07T14:08:21;24.70;96.80
37222;DHT22;23119;51.842;-2.230;2023-05-07T14:10:49;24.60;96.80
37222;DHT22;23119;51.842;-2.230;2023-05-07T14:13:17;24.50;97.10
37222;DHT22;23119;51.842;-2.230;2023-05-07T14:15:43;24.50;96.90
37222;DHT22;23119;51.842;-2.230;2023-05-07T14:18:13;24.50;96.90
37222;DHT22;23119;51.842;-2.230;2023-05-07T14:20:39;24.40;96.90
37222;DHT22;23119;51.842;-2.230;2023-05-07T14:23:07;24.50;97.10
37222;DHT22;23119;51.842;-2.230;2023-05-07T14:25:35;24.40;96.90
37222;DHT22;23119;51.842;-2.230;2023-05-07T14:28:01;24.20;96.80
37222;DHT22;23119;51.842;-2.230;2023-05-07T14:30:27;24.00;96.70
37222;DHT22;23119;51.842;-2.230;2023-05-07T14:32:55;23.90;97.00
37222;DHT22;23119;51.842;-2.230;2023-05-07T14:35:21;23.80;97.20
37222;DHT22;23119;51.842;-2.230;2023-05-07T14:37:46;23.70;97.70
37222;DHT22;23119;51.842;-2.230;2023-05-07T14:40:14;23.70;97.50
37222;DHT22;23119;51.842;-2.230;2023-05-07T14:42:40;23.70;97.70
37222;DHT22;23119;51.842;-2.230;2023-05-07T14:45:06;23.80;97.90
37222;DHT22;23119;51.842;-2.230;2023-05-07T14:47:32;23.90;97.90
37222;DHT22;23119;51.842;-2.230;2023-05-07T14:49:58;23.90;97.70
37222;DHT22;23119;51.842;-2.230;2023-05-07T14:52:26;23.80;97.70
37222;DHT22;23119;51.842;-2.230;2023-05-07T14:54:52;23.80;97.80
37222;DHT22;23119;51.842;-2.230;2023-05-07T14:57:18;23.70;98.00
37222;DHT22;23119;51.842;-2.230;2023-05-07T14:59:45;23.50;97.70
37222;DHT22;23119;51.842;-2.230;2023-05-07T15:02:13;23.50;98.00
37222;DHT22;23119;51.842;-2.230;2023-05-07T15:04:40;23.50;98.30
37222;DHT22;23119;51.842;-2.230;2023-05-07T15:07:14;23.50;98.20
37222;DHT22;23119;51.842;-2.230;2023-05-07T15:09:42;23.40;98.30
37222;DHT22;23119;51.842;-2.230;2023-05-07T15:12:07;23.40;98.20
37222;DHT22;23119;51.842;-2.230;2023-05-07T15:14:37;23.30;98.20
37222;DHT22;23119;51.842;-2.230;2023-05-07T15:17:03;23.30;98.20
37222;DHT22;23119;51.842;-2.230;2023-05-07T15:19:31;23.30;98.10
37222;DHT22;23119;51.842;-2.230;2023-05-07T15:21:58;23.20;98.10
37222;DHT22;23119;51.842;-2.230;2023-05-07T15:24:25;23.00;98.10
37222;DHT22;23119;51.842;-2.230;2023-05-07T15:26:54;22.90;98.20
37222;DHT22;23119;51.842;-2.230;2023-05-07T15:29:19;22.90;98.40
37222;DHT22;23119;51.842;-2.230;2023-05-07T15:31:55;22.90;98.60
37222;DHT22;23119;51.842;-2.230;2023-05-07T15:34:21;22.70;98.40
37222;DHT22;23119;51.842;-2.230;2023-05-07T15:36:50;22.70;98.50
37222;DHT22;23119;51.842;-2.230;2023-05-07T15:39:16;22.60;98.60